Time;durP1;ratioP1;P1;durP2;ratioP2;P2;SDS_P1;SDS_P2;PMS_P1;PMS_P2;Temp;Humidity;BMP_temperature;BMP_pressure;BME280_temperature;BME280_humidity;BME280_pressure;Samples;Min_cycle;Max_cycle;Signal;HPM_P1;HPM_P2
2022/12/31 00:02:17;;;;;;;;;;;24.00;76.80;;;;;;6244905;22;19973;-72
2022/12/31 00:04:43;;;;;;;;;;;24.00;78.10;;;;;;6245486;22;19910;-72
2022/12/31 00:07:10;;;;;;;;;;;24.00;78.40;;;;;;6244984;22;19931;-73
2022/12/31 00:09:37;;;;;;;;;;;24.10;79.00;;;;;;6244932;22;20353;-72
2022/12/31 00:12:03;;;;;;;;;;;24.20;77.90;;;;;;6245181;22;19915;-72
2022/12/31 00:14:30;;;;;;;;;;;24.30;78.00;;;;;;6245536;22;19986;-73
2022/12/31 00:16:56;;;;;;;;;;;24.30;77.50;;;;;;6246723;22;19962;-73
2022/12/31 00:19:23;;;;;;;;;;;24.40;78.50;;;;;;6246917;22;19982;-73
2022/12/31 00:21:50;;;;;;;;;;;24.60;77.30;;;;;;6246729;22;19904;-73
2022/12/31 00:24:16;;;;;;;;;;;24.80;76.50;;;;;;6246554;22;19911;-74
2022/12/31 00:26:43;;;;;;;;;;;24.60;74.30;;;;;;6246552;22;20577;-73
2022/12/31 00:29:09;;;;;;;;;;;24.60;75.30;;;;;;6246359;22;19958;-73
2022/12/31 00:31:37;;;;;;;;;;;24.60;75.30;;;;;;6246722;22;19908;-73
2022/12/31 00:34:03;;;;;;;;;;;24.70;75.80;;;;;;6246869;22;20311;-73
2022/12/31 00:36:31;;;;;;;;;;;24.60;75.00;;;;;;6246353;22;19907;-73
2022/12/31 00:38:58;;;;;;;;;;;24.50;75.20;;;;;;6246318;22;19978;-73
2022/12/31 00:41:25;;;;;;;;;;;24.50;75.30;;;;;;6246492;22;20240;-73
2022/12/31 00:43:51;;;;;;;;;;;24.50;74.40;;;;;;6246639;22;20291;-74
2022/12/31 00:46:18;;;;;;;;;;;24.50;76.10;;;;;;6246520;22;20349;-73
2022/12/31 00:48:44;;;;;;;;;;;24.70;76.60;;;;;;6246424;22;19914;-73
2022/12/31 00:51:12;;;;;;;;;;;24.60;75.90;;;;;;6246811;22;19908;-73
2022/12/31 00:53:38;;;;;;;;;;;24.70;75.80;;;;;;6245374;23;19907;-73
2022/12/31 00:56:06;;;;;;;;;;;24.70;75.20;;;;;;6246504;22;19912;-73
2022/12/31 00:58:33;;;;;;;;;;;24.70;74.60;;;;;;6246278;22;20342;-73
2022/12/31 01:01:12;;;;;;;;;;;24.70;76.30;;;;;;6246240;22;19912;-74
2022/12/31 01:03:39;;;;;;;;;;;24.80;76.00;;;;;;6246268;22;19916;-73
2022/12/31 01:06:05;;;;;;;;;;;24.80;76.00;;;;;;6246070;22;19910;-73
2022/12/31 01:08:32;;;;;;;;;;;24.80;74.00;;;;;;6246498;22;19949;-73
2022/12/31 01:13:48;;;;;;;;;;;24.80;72.00;;;;;;6245093;23;20325;-74
2022/12/31 01:16:15;;;;;;;;;;;24.80;71.50;;;;;;6247186;22;19908;-73
2022/12/31 01:18:42;;;;;;;;;;;24.80;71.20;;;;;;6246040;22;19904;-74
2022/12/31 01:21:09;;;;;;;;;;;24.90;72.70;;;;;;6246365;22;19943;-73
2022/12/31 01:23:36;;;;;;;;;;;24.90;72.00;;;;;;6246368;22;20369;-73
2022/12/31 01:26:03;;;;;;;;;;;25.00;72.10;;;;;;6245691;22;20385;-73
2022/12/31 01:28:30;;;;;;;;;;;24.90;72.00;;;;;;6245907;22;19903;-73
2022/12/31 01:30:56;;;;;;;;;;;25.00;74.10;;;;;;6244611;22;19911;-73
2022/12/31 01:33:23;;;;;;;;;;;25.00;72.00;;;;;;6245804;22;19904;-73
2022/12/31 01:35:50;;;;;;;;;;;25.10;74.30;;;;;;6244368;23;19981;-74
2022/12/31 01:38:16;;;;;;;;;;;25.10;73.30;;;;;;6246363;22;19950;-74
2022/12/31 01:40:43;;;;;;;;;;;25.10;73.80;;;;;;6245909;22;19984;-73
2022/12/31 01:43:16;;;;;;;;;;;25.10;72.90;;;;;;6246066;22;19904;-73
2022/12/31 01:45:43;;;;;;;;;;;25.10;73.90;;;;;;6244281;23;19965;-73
2022/12/31 01:48:10;;;;;;;;;;;25.00;73.40;;;;;;6244435;23;20313;-73
2022/12/31 01:50:38;;;;;;;;;;;24.90;74.10;;;;;;6245706;22;19916;-73
2022/12/31 01:53:05;;;;;;;;;;;24.90;74.20;;;;;;6244144;22;19907;-73
2022/12/31 01:55:36;;;;;;;;;;;24.80;74.40;;;;;;6245756;22;20323;-73
2022/12/31 01:58:34;;;;;;;;;;;24.80;74.40;;;;;;6245723;22;20312;-73
2022/12/31 02:01:01;;;;;;;;;;;24.70;74.60;;;;;;6178998;22;19942;-73
2022/12/31 02:03:28;;;;;;;;;;;24.80;76.30;;;;;;6246029;22;19982;-74
2022/12/31 02:06:00;;;;;;;;;;;24.80;75.30;;;;;;6245864;22;19911;-73
2022/12/31 02:08:27;;;;;;;;;;;25.00;74.60;;;;;;6243903;23;19904;-74
2022/12/31 02:10:53;;;;;;;;;;;24.80;72.80;;;;;;6245845;22;20338;-74
2022/12/31 02:13:20;;;;;;;;;;;24.80;73.70;;;;;;6245862;22;19911;-73
2022/12/31 02:16:13;;;;;;;;;;;24.80;73.60;;;;;;6245770;22;20239;-73
2022/12/31 02:18:59;;;;;;;;;;;24.80;72.80;;;;;;6239796;23;19907;-74
2022/12/31 02:21:58;;;;;;;;;;;24.70;74.50;;;;;;6244901;22;19910;-74
2022/12/31 02:24:32;;;;;;;;;;;24.70;75.30;;;;;;6178653;22;20323;-74
2022/12/31 02:27:02;;;;;;;;;;;24.70;75.30;;;;;;6243677;23;19910;-73
2022/12/31 02:29:31;;;;;;;;;;;24.60;75.10;;;;;;6245829;22;20766;-73
2022/12/31 02:32:20;;;;;;;;;;;24.50;75.30;;;;;;6245366;22;19988;-73
2022/12/31 02:34:48;;;;;;;;;;;24.50;75.00;;;;;;6229935;23;19904;-75
2022/12/31 02:37:15;;;;;;;;;;;24.50;75.60;;;;;;6244081;23;20026;-73
2022/12/31 02:39:41;;;;;;;;;;;24.40;75.10;;;;;;6245378;22;19912;-73
2022/12/31 02:42:09;;;;;;;;;;;24.40;75.30;;;;;;6243874;22;19907;-73
2022/12/31 02:44:36;;;;;;;;;;;24.50;75.90;;;;;;6245459;22;19977;-73
2022/12/31 02:47:02;;;;;;;;;;;24.50;75.80;;;;;;6244915;22;20231;-73
2022/12/31 02:49:35;;;;;;;;;;;24.50;75.40;;;;;;6245490;22;19911;-73
2022/12/31 02:52:01;;;;;;;;;;;24.50;75.20;;;;;;6245303;22;19904;-73
2022/12/31 02:54:28;;;;;;;;;;;24.50;75.40;;;;;;6245509;22;19904;-73
2022/12/31 02:56:54;;;;;;;;;;;24.40;74.10;;;;;;6245650;22;20341;-73
2022/12/31 03:02:14;;;;;;;;;;;24.20;73.70;;;;;;6245343;22;19915;-73
2022/12/31 03:04:54;;;;;;;;;;;24.20;74.20;;;;;;6243979;23;19903;-73
2022/12/31 03:07:21;;;;;;;;;;;24.10;73.90;;;;;;6245542;22;19986;-73
2022/12/31 03:09:48;;;;;;;;;;;24.10;73.80;;;;;;6245319;22;20330;-73
2022/12/31 03:14:59;;;;;;;;;;;24.00;73.80;;;;;;6243742;23;19922;-73
2022/12/31 03:17:25;;;;;;;;;;;23.90;74.10;;;;;;6245206;22;19978;-73
2022/12/31 03:22:38;;;;;;;;;;;24.00;74.20;;;;;;6245139;22;20239;-73
2022/12/31 03:27:49;;;;;;;;;;;23.90;74.40;;;;;;6245296;23;19957;-73
2022/12/31 03:30:16;;;;;;;;;;;24.00;74.90;;;;;;6245034;22;19912;-73
2022/12/31 03:32:43;;;;;;;;;;;24.00;73.40;;;;;;6245168;22;20337;-73
2022/12/31 03:35:10;;;;;;;;;;;24.00;74.20;;;;;;6245266;22;20252;-73
2022/12/31 03:37:38;;;;;;;;;;;24.00;75.10;;;;;;6245312;22;20335;-73
2022/12/31 03:40:06;;;;;;;;;;;24.00;76.30;;;;;;6245634;22;19918;-73
2022/12/31 03:42:32;;;;;;;;;;;24.10;76.50;;;;;;6244949;22;19908;-73
2022/12/31 03:44:59;;;;;;;;;;;24.10;75.70;;;;;;6243272;23;19904;-73
2022/12/31 03:47:25;;;;;;;;;;;24.10;75.80;;;;;;6245156;22;20291;-73
2022/12/31 03:49:52;;;;;;;;;;;24.10;76.30;;;;;;6245950;22;19933;-73
2022/12/31 03:52:19;;;;;;;;;;;24.00;76.40;;;;;;6247143;22;19907;-73
2022/12/31 03:54:45;;;;;;;;;;;24.10;77.10;;;;;;6246879;22;19904;-73
2022/12/31 03:57:12;;;;;;;;;;;24.10;77.80;;;;;;6246702;22;19911;-74
2022/12/31 03:59:38;;;;;;;;;;;24.10;77.30;;;;;;6246870;22;20242;-73
2022/12/31 04:02:05;;;;;;;;;;;24.10;77.70;;;;;;6245125;22;19903;-73
2022/12/31 04:04:32;;;;;;;;;;;24.10;76.50;;;;;;6246813;22;19946;-73
2022/12/31 04:06:58;;;;;;;;;;;24.20;76.70;;;;;;6247296;22;19978;-74
2022/12/31 04:09:25;;;;;;;;;;;24.20;77.10;;;;;;6246741;22;19958;-73
2022/12/31 04:11:52;;;;;;;;;;;24.20;76.70;;;;;;6246448;22;20334;-73
2022/12/31 04:14:18;;;;;;;;;;;24.20;76.90;;;;;;6247265;22;19904;-73
2022/12/31 04:16:45;;;;;;;;;;;24.30;77.60;;;;;;6247349;22;19904;-73
2022/12/31 04:19:12;;;;;;;;;;;24.20;77.40;;;;;;6246732;22;20418;-73
2022/12/31 04:21:38;;;;;;;;;;;24.20;77.70;;;;;;6246638;22;19990;-73
2022/12/31 04:24:05;;;;;;;;;;;24.20;78.90;;;;;;6246992;22;19978;-73
2022/12/31 04:26:32;;;;;;;;;;;24.10;78.30;;;;;;6246589;22;19957;-73
2022/12/31 04:28:59;;;;;;;;;;;24.10;78.20;;;;;;6245031;23;19914;-73
2022/12/31 04:31:25;;;;;;;;;;;24.10;78.70;;;;;;6246702;22;19903;-73
2022/12/31 04:33:52;;;;;;;;;;;24.00;77.70;;;;;;6247059;22;19991;-73
2022/12/31 04:36:19;;;;;;;;;;;24.00;78.30;;;;;;6246763;22;19918;-74
2022/12/31 04:38:45;;;;;;;;;;;24.10;77.70;;;;;;6246623;22;19915;-73
2022/12/31 04:41:19;;;;;;;;;;;24.00;77.50;;;;;;6246630;22;20319;-73
2022/12/31 04:43:55;;;;;;;;;;;24.10;77.20;;;;;;6246588;22;19907;-73
2022/12/31 04:46:25;;;;;;;;;;;24.10;77.60;;;;;;6246669;22;19903;-74
2022/12/31 04:48:52;;;;;;;;;;;24.10;78.30;;;;;;6246739;22;20319;-73
2022/12/31 04:51:19;;;;;;;;;;;24.10;78.70;;;;;;6246378;22;19908;-73
2022/12/31 04:53:46;;;;;;;;;;;24.10;78.60;;;;;;6246421;22;19939;-73
2022/12/31 04:56:12;;;;;;;;;;;24.10;78.40;;;;;;6246409;22;19986;-73
2022/12/31 04:58:39;;;;;;;;;;;24.00;76.90;;;;;;6246674;22;19908;-73
2022/12/31 05:01:06;;;;;;;;;;;24.00;77.20;;;;;;6245468;22;19954;-73
2022/12/31 05:03:32;;;;;;;;;;;24.00;78.10;;;;;;6246244;22;19904;-73
2022/12/31 05:06:03;;;;;;;;;;;23.90;77.00;;;;;;6246772;22;19974;-73
2022/12/31 05:08:30;;;;;;;;;;;24.00;77.20;;;;;;6244937;23;19931;-73
2022/12/31 05:10:56;;;;;;;;;;;23.90;76.80;;;;;;6246023;22;20212;-73
2022/12/31 05:13:23;;;;;;;;;;;23.90;76.30;;;;;;6246247;22;19903;-73
2022/12/31 05:15:50;;;;;;;;;;;23.90;77.20;;;;;;6246577;22;19907;-73
2022/12/31 05:18:16;;;;;;;;;;;23.90;77.10;;;;;;6246693;22;19911;-73
2022/12/31 05:20:43;;;;;;;;;;;23.90;78.20;;;;;;6246396;22;19911;-73
2022/12/31 05:23:09;;;;;;;;;;;24.00;77.80;;;;;;6246177;22;19904;-73
2022/12/31 05:25:36;;;;;;;;;;;24.00;77.60;;;;;;6246808;22;19915;-73
2022/12/31 05:28:03;;;;;;;;;;;24.00;76.90;;;;;;6246062;22;19915;-73
2022/12/31 05:30:29;;;;;;;;;;;24.00;76.70;;;;;;6246111;22;20342;-73
2022/12/31 05:32:56;;;;;;;;;;;24.00;76.90;;;;;;6246072;22;19914;-73
2022/12/31 05:35:22;;;;;;;;;;;24.00;76.60;;;;;;6246063;22;19903;-73
2022/12/31 05:37:49;;;;;;;;;;;24.00;76.80;;;;;;6245987;22;19915;-73
2022/12/31 05:40:16;;;;;;;;;;;24.00;76.60;;;;;;6246184;22;20347;-73
2022/12/31 05:42:42;;;;;;;;;;;24.10;76.60;;;;;;6245827;22;19907;-73
2022/12/31 05:45:12;;;;;;;;;;;24.10;77.00;;;;;;6246148;22;19958;-73
2022/12/31 05:47:39;;;;;;;;;;;24.10;76.60;;;;;;6245991;22;19911;-73
2022/12/31 05:50:09;;;;;;;;;;;24.10;75.40;;;;;;6245881;22;19912;-73
2022/12/31 05:52:36;;;;;;;;;;;24.20;74.70;;;;;;6245691;22;19958;-73
2022/12/31 05:55:02;;;;;;;;;;;24.10;73.80;;;;;;6245924;22;19983;-73
2022/12/31 05:57:29;;;;;;;;;;;24.20;73.80;;;;;;6245394;22;19904;-74
2022/12/31 05:59:56;;;;;;;;;;;24.20;73.20;;;;;;6245833;22;19908;-73
2022/12/31 06:02:22;;;;;;;;;;;24.20;73.70;;;;;;6245854;22;19974;-74
2022/12/31 06:04:49;;;;;;;;;;;24.10;74.60;;;;;;6245713;22;20314;-74
2022/12/31 06:07:15;;;;;;;;;;;24.10;74.40;;;;;;6245499;22;19907;-72
2022/12/31 06:09:42;;;;;;;;;;;24.00;73.80;;;;;;6245560;22;19911;-73
2022/12/31 06:12:09;;;;;;;;;;;24.00;73.70;;;;;;6245741;22;19973;-73
2022/12/31 06:14:35;;;;;;;;;;;23.90;72.60;;;;;;6245564;22;19904;-73
2022/12/31 06:17:02;;;;;;;;;;;23.90;73.30;;;;;;6245366;22;19907;-72
2022/12/31 06:19:28;;;;;;;;;;;24.00;73.40;;;;;;6245694;22;19903;-72
2022/12/31 06:21:55;;;;;;;;;;;23.90;73.30;;;;;;6246001;22;19914;-73
2022/12/31 06:24:22;;;;;;;;;;;24.00;73.90;;;;;;6245490;22;19965;-73
2022/12/31 06:26:48;;;;;;;;;;;24.00;75.00;;;;;;6245788;22;19935;-72
2022/12/31 06:29:15;;;;;;;;;;;24.00;76.20;;;;;;6245420;22;19946;-72
2022/12/31 06:31:41;;;;;;;;;;;24.00;76.40;;;;;;6245292;22;19969;-72
2022/12/31 06:34:08;;;;;;;;;;;24.00;75.70;;;;;;6245496;22;19903;-72
2022/12/31 06:36:35;;;;;;;;;;;24.00;75.50;;;;;;6245076;22;19911;-72
2022/12/31 06:39:01;;;;;;;;;;;24.00;76.00;;;;;;6245499;22;19922;-73
2022/12/31 06:41:28;;;;;;;;;;;24.00;75.90;;;;;;6245600;22;19904;-73
2022/12/31 06:43:54;;;;;;;;;;;23.90;74.80;;;;;;6245409;22;19994;-72
2022/12/31 06:46:21;;;;;;;;;;;23.90;74.60;;;;;;6245001;22;19982;-72
2022/12/31 06:48:48;;;;;;;;;;;23.90;75.00;;;;;;6246027;22;19911;-74
2022/12/31 06:51:16;;;;;;;;;;;23.90;75.70;;;;;;6245590;22;19982;-74
2022/12/31 06:53:43;;;;;;;;;;;23.90;75.50;;;;;;6243952;23;19903;-73
2022/12/31 06:56:13;;;;;;;;;;;23.90;75.80;;;;;;6244983;22;19910;-74
2022/12/31 06:58:40;;;;;;;;;;;23.90;76.60;;;;;;6245269;22;19931;-74
2022/12/31 07:01:25;;;;;;;;;;;23.90;77.00;;;;;;6245149;22;19914;-74
2022/12/31 07:04:14;;;;;;;;;;;23.90;77.20;;;;;;6245538;22;19930;-74
2022/12/31 07:07:00;;;;;;;;;;;23.80;77.20;;;;;;6243808;23;19965;-74
2022/12/31 07:09:30;;;;;;;;;;;23.80;77.90;;;;;;6183833;22;19941;-74
2022/12/31 07:11:57;;;;;;;;;;;23.80;77.30;;;;;;6245216;22;19948;-74
2022/12/31 07:14:30;;;;;;;;;;;23.80;77.60;;;;;;6245030;22;20041;-74
2022/12/31 07:16:57;;;;;;;;;;;23.70;77.70;;;;;;6243922;23;19903;-74
2022/12/31 07:19:40;;;;;;;;;;;23.70;77.40;;;;;;6244810;22;20331;-74
2022/12/31 07:22:07;;;;;;;;;;;23.70;77.30;;;;;;6243783;22;19914;-74
2022/12/31 07:24:34;;;;;;;;;;;23.70;76.60;;;;;;6242911;23;19904;-74
2022/12/31 07:27:04;;;;;;;;;;;23.70;76.80;;;;;;6243616;23;20105;-74
2022/12/31 07:29:34;;;;;;;;;;;23.60;76.40;;;;;;6245372;22;20323;-74
2022/12/31 07:32:10;;;;;;;;;;;23.50;76.80;;;;;;6243730;22;20220;-74
2022/12/31 07:34:48;;;;;;;;;;;23.50;77.00;;;;;;6245457;22;19949;-73
2022/12/31 07:37:32;;;;;;;;;;;23.60;77.30;;;;;;6243551;23;19904;-74
2022/12/31 07:40:03;;;;;;;;;;;23.50;77.50;;;;;;6243431;23;19923;-73
2022/12/31 07:42:38;;;;;;;;;;;23.50;77.90;;;;;;6243694;22;19903;-73
2022/12/31 07:45:08;;;;;;;;;;;23.50;77.80;;;;;;6243616;23;19911;-73
2022/12/31 07:47:34;;;;;;;;;;;23.50;78.00;;;;;;6244980;22;19903;-73
2022/12/31 07:50:01;;;;;;;;;;;23.40;78.30;;;;;;6244868;22;20246;-72
2022/12/31 07:52:28;;;;;;;;;;;23.40;78.20;;;;;;6244850;22;19903;-73
2022/12/31 07:54:54;;;;;;;;;;;23.30;78.30;;;;;;6244984;22;20390;-73
2022/12/31 07:57:21;;;;;;;;;;;23.30;78.30;;;;;;6245088;22;19903;-73
2022/12/31 07:59:47;;;;;;;;;;;23.30;78.50;;;;;;6243726;23;19903;-73
2022/12/31 08:02:23;;;;;;;;;;;23.30;79.10;;;;;;6244663;22;19903;-73
2022/12/31 08:05:01;;;;;;;;;;;23.30;78.90;;;;;;6244830;22;19975;-73
2022/12/31 08:07:31;;;;;;;;;;;23.30;79.20;;;;;;6244930;22;20327;-73
2022/12/31 08:10:06;;;;;;;;;;;23.30;79.50;;;;;;6244686;22;19916;-73
2022/12/31 08:12:34;;;;;;;;;;;23.30;79.90;;;;;;6244809;22;19915;-73
2022/12/31 08:15:00;;;;;;;;;;;23.30;80.30;;;;;;6244562;22;19994;-73
2022/12/31 08:17:27;;;;;;;;;;;23.30;80.40;;;;;;6244900;22;19908;-73
2022/12/31 08:19:54;;;;;;;;;;;23.30;80.60;;;;;;6244762;22;19904;-73
2022/12/31 08:22:24;;;;;;;;;;;23.30;81.20;;;;;;6244738;22;19934;-73
2022/12/31 08:24:54;;;;;;;;;;;23.30;81.30;;;;;;6243562;23;19904;-73
2022/12/31 08:27:59;;;;;;;;;;;23.30;81.00;;;;;;6243368;23;20385;-73
2022/12/31 08:30:41;;;;;;;;;;;23.30;81.10;;;;;;6122319;23;19917;-73
2022/12/31 08:33:13;;;;;;;;;;;23.20;81.10;;;;;;6098438;23;19944;-73
2022/12/31 08:35:40;;;;;;;;;;;23.30;81.50;;;;;;6187065;23;19904;-73
2022/12/31 08:38:10;;;;;;;;;;;23.30;81.70;;;;;;6246733;22;19912;-72
2022/12/31 08:40:42;;;;;;;;;;;23.30;82.00;;;;;;6245181;23;20250;-73
2022/12/31 08:43:15;;;;;;;;;;;23.20;82.20;;;;;;6244866;23;19949;-73
2022/12/31 08:45:42;;;;;;;;;;;23.20;81.90;;;;;;6246573;22;19904;-73
2022/12/31 08:48:12;;;;;;;;;;;23.20;82.10;;;;;;6245062;23;19930;-73
2022/12/31 08:50:39;;;;;;;;;;;23.20;82.10;;;;;;6246761;22;19912;-73
2022/12/31 08:53:05;;;;;;;;;;;23.20;82.20;;;;;;6246656;22;19903;-73
2022/12/31 08:55:32;;;;;;;;;;;23.20;82.30;;;;;;6246709;22;20342;-73
2022/12/31 08:58:08;;;;;;;;;;;23.20;82.30;;;;;;6246550;22;19990;-73
2022/12/31 09:00:35;;;;;;;;;;;23.10;82.10;;;;;;6246710;22;19974;-73
2022/12/31 09:03:11;;;;;;;;;;;23.10;82.50;;;;;;6245082;22;19903;-73
2022/12/31 09:05:57;;;;;;;;;;;23.20;82.70;;;;;;6245146;23;19908;-73
2022/12/31 09:08:39;;;;;;;;;;;23.10;82.70;;;;;;6246419;23;19990;-72
2022/12/31 09:11:14;;;;;;;;;;;23.10;82.60;;;;;;6244786;22;19918;-73
2022/12/31 09:13:59;;;;;;;;;;;23.10;82.90;;;;;;6244828;23;19904;-73
2022/12/31 09:16:41;;;;;;;;;;;23.10;83.00;;;;;;6246314;23;20282;-73
2022/12/31 09:19:08;;;;;;;;;;;23.10;83.10;;;;;;6245059;23;19904;-73
2022/12/31 09:21:36;;;;;;;;;;;23.10;83.00;;;;;;6246462;22;19986;-73
2022/12/31 09:24:04;;;;;;;;;;;23.10;83.20;;;;;;6246287;22;19907;-73
2022/12/31 09:26:34;;;;;;;;;;;23.10;83.30;;;;;;6246263;22;19904;-73
2022/12/31 09:29:04;;;;;;;;;;;23.00;83.30;;;;;;6246146;22;19907;-73
2022/12/31 09:32:00;;;;;;;;;;;23.00;83.50;;;;;;6245909;22;20307;-73
2022/12/31 09:34:30;;;;;;;;;;;23.00;83.60;;;;;;6138537;22;19937;-72
2022/12/31 09:36:58;;;;;;;;;;;23.00;83.50;;;;;;6244504;23;19919;-73
2022/12/31 09:39:39;;;;;;;;;;;23.00;83.60;;;;;;6245555;22;19916;-73
2022/12/31 09:42:24;;;;;;;;;;;23.00;83.70;;;;;;6245623;22;19904;-73
2022/12/31 09:45:09;;;;;;;;;;;23.00;83.80;;;;;;6244238;23;19904;-72
2022/12/31 09:47:53;;;;;;;;;;;23.00;83.70;;;;;;6245594;23;20033;-73
2022/12/31 09:50:20;;;;;;;;;;;22.90;83.80;;;;;;6245852;23;19911;-73
2022/12/31 09:52:50;;;;;;;;;;;23.00;83.60;;;;;;6245389;22;19955;-73
2022/12/31 09:55:19;;;;;;;;;;;22.90;83.60;;;;;;6245416;22;19903;-73
2022/12/31 09:57:50;;;;;;;;;;;23.00;83.50;;;;;;6245621;22;19914;-73
2022/12/31 10:00:37;;;;;;;;;;;23.00;83.50;;;;;;6244247;23;20288;-73
2022/12/31 10:03:06;;;;;;;;;;;22.90;83.40;;;;;;6245771;22;19912;-73
2022/12/31 10:06:11;;;;;;;;;;;22.90;83.70;;;;;;6245865;22;19987;-73
2022/12/31 10:08:47;;;;;;;;;;;22.90;83.70;;;;;;6123146;23;19912;-73
2022/12/31 10:11:16;;;;;;;;;;;22.90;83.30;;;;;;6099247;23;19932;-73
2022/12/31 10:13:46;;;;;;;;;;;22.90;83.50;;;;;;6191754;22;19908;-73
2022/12/31 10:16:12;;;;;;;;;;;22.90;83.60;;;;;;6245650;22;19911;-73
2022/12/31 10:18:39;;;;;;;;;;;22.90;83.50;;;;;;6245485;22;20338;-73
2022/12/31 10:21:11;;;;;;;;;;;22.80;83.50;;;;;;6245523;22;19904;-73
2022/12/31 10:23:37;;;;;;;;;;;22.80;83.40;;;;;;6244045;23;19979;-73
2022/12/31 10:26:04;;;;;;;;;;;22.80;83.20;;;;;;6245688;22;19904;-73
2022/12/31 10:28:37;;;;;;;;;;;22.80;83.20;;;;;;6245483;22;20330;-73
2022/12/31 10:31:03;;;;;;;;;;;22.80;83.20;;;;;;6244173;22;20327;-73
2022/12/31 10:33:50;;;;;;;;;;;22.80;83.30;;;;;;6245548;22;19915;-73
2022/12/31 10:36:16;;;;;;;;;;;22.80;83.30;;;;;;6243017;23;20250;-73
2022/12/31 10:38:58;;;;;;;;;;;22.80;83.10;;;;;;6245621;22;20187;-73
2022/12/31 10:41:34;;;;;;;;;;;22.80;83.10;;;;;;6245301;22;19904;-73
2022/12/31 10:44:18;;;;;;;;;;;22.80;83.20;;;;;;6245529;22;19903;-72
2022/12/31 10:46:45;;;;;;;;;;;22.80;83.20;;;;;;6245324;23;19907;-73
2022/12/31 10:49:30;;;;;;;;;;;22.80;82.90;;;;;;6245367;22;19912;-73
2022/12/31 10:52:08;;;;;;;;;;;22.80;83.00;;;;;;6245026;22;19903;-73
2022/12/31 10:54:38;;;;;;;;;;;22.80;82.80;;;;;;6245332;22;19979;-72
2022/12/31 10:57:14;;;;;;;;;;;22.80;83.10;;;;;;6243755;23;19914;-72
2022/12/31 10:59:53;;;;;;;;;;;22.80;82.80;;;;;;6243530;23;19908;-72
2022/12/31 11:02:32;;;;;;;;;;;22.80;82.70;;;;;;6245346;22;20323;-72
2022/12/31 11:05:04;;;;;;;;;;;22.80;82.50;;;;;;6245460;22;19904;-72
2022/12/31 11:07:50;;;;;;;;;;;22.80;82.20;;;;;;6245373;22;20327;-72
2022/12/31 11:10:32;;;;;;;;;;;22.80;82.20;;;;;;6244982;23;19918;-72
2022/12/31 11:13:05;;;;;;;;;;;22.80;82.40;;;;;;6245100;22;20006;-72
2022/12/31 11:15:46;;;;;;;;;;;22.80;82.30;;;;;;6245455;22;19971;-72
2022/12/31 11:18:36;;;;;;;;;;;22.80;82.20;;;;;;6245139;22;19915;-72
2022/12/31 11:21:08;;;;;;;;;;;22.80;82.30;;;;;;6243730;22;19927;-72
2022/12/31 11:23:58;;;;;;;;;;;22.80;82.70;;;;;;6245060;22;19904;-72
2022/12/31 11:26:24;;;;;;;;;;;22.80;82.70;;;;;;6229816;23;19911;-72
2022/12/31 11:29:03;;;;;;;;;;;22.70;82.80;;;;;;6245116;22;19912;-72
2022/12/31 11:31:38;;;;;;;;;;;22.70;82.70;;;;;;6244868;22;19908;-72
2022/12/31 11:34:24;;;;;;;;;;;22.70;82.60;;;;;;6243644;23;20243;-72
2022/12/31 11:37:09;;;;;;;;;;;22.70;82.70;;;;;;6243303;23;19978;-72
2022/12/31 11:39:44;;;;;;;;;;;22.70;82.80;;;;;;6244449;23;20017;-72
2022/12/31 11:42:14;;;;;;;;;;;22.70;82.60;;;;;;6244920;22;19904;-72
2022/12/31 11:44:52;;;;;;;;;;;22.70;82.50;;;;;;6244622;22;20350;-72
2022/12/31 11:47:28;;;;;;;;;;;22.70;82.60;;;;;;6245309;22;19908;-73
2022/12/31 11:50:14;;;;;;;;;;;22.70;82.40;;;;;;6244305;22;19934;-73
2022/12/31 11:52:47;;;;;;;;;;;22.80;82.50;;;;;;6245007;22;19939;-73
2022/12/31 11:55:26;;;;;;;;;;;22.70;82.60;;;;;;6243702;23;19919;-73
2022/12/31 11:57:53;;;;;;;;;;;22.70;82.70;;;;;;6245286;22;19907;-72
2022/12/31 12:00:20;;;;;;;;;;;22.70;82.60;;;;;;6244879;22;19959;-73
2022/12/31 12:02:47;;;;;;;;;;;22.70;82.80;;;;;;6244998;22;19957;-73
2022/12/31 12:05:21;;;;;;;;;;;22.60;82.90;;;;;;6244913;22;19910;-73
2022/12/31 12:07:48;;;;;;;;;;;22.60;82.80;;;;;;6243628;23;20302;-72
2022/12/31 12:10:24;;;;;;;;;;;22.70;82.70;;;;;;6245092;22;19965;-72
2022/12/31 12:12:51;;;;;;;;;;;22.70;82.60;;;;;;6246709;22;19911;-73
2022/12/31 12:15:20;;;;;;;;;;;22.60;82.60;;;;;;6246646;22;19904;-72
2022/12/31 12:17:54;;;;;;;;;;;22.60;82.50;;;;;;6246304;22;19986;-73
2022/12/31 12:20:30;;;;;;;;;;;22.60;82.50;;;;;;6245003;23;20372;-73
2022/12/31 12:22:58;;;;;;;;;;;22.60;82.80;;;;;;6244800;22;19908;-73
2022/12/31 12:25:25;;;;;;;;;;;22.50;82.80;;;;;;6247078;22;19903;-73
2022/12/31 12:27:52;;;;;;;;;;;22.60;82.60;;;;;;6245239;23;20338;-73
2022/12/31 12:30:20;;;;;;;;;;;22.50;82.90;;;;;;6244819;23;20392;-73
2022/12/31 12:32:51;;;;;;;;;;;22.50;82.80;;;;;;6244462;22;19911;-72
2022/12/31 12:35:38;;;;;;;;;;;22.50;82.80;;;;;;6246749;22;20015;-73
2022/12/31 12:38:05;;;;;;;;;;;22.50;82.80;;;;;;6245681;22;19915;-72
2022/12/31 12:40:33;;;;;;;;;;;22.50;82.70;;;;;;6246573;22;19911;-72
2022/12/31 12:43:00;;;;;;;;;;;22.50;83.00;;;;;;6246766;22;20320;-73
2022/12/31 12:45:28;;;;;;;;;;;22.50;82.80;;;;;;6246372;22;19947;-73
2022/12/31 12:47:59;;;;;;;;;;;22.50;82.70;;;;;;6244888;23;20327;-73
2022/12/31 12:50:32;;;;;;;;;;;22.50;82.80;;;;;;6246351;22;19922;-73
2022/12/31 12:52:58;;;;;;;;;;;22.50;82.90;;;;;;6246044;22;19978;-73
2022/12/31 12:55:32;;;;;;;;;;;22.50;83.00;;;;;;6246461;22;19925;-73
2022/12/31 12:58:02;;;;;;;;;;;22.50;82.90;;;;;;6245145;23;19903;-73
2022/12/31 13:00:38;;;;;;;;;;;22.50;83.20;;;;;;6246162;22;19966;-73
2022/12/31 13:03:14;;;;;;;;;;;22.50;83.20;;;;;;6246363;22;20345;-73
2022/12/31 13:05:47;;;;;;;;;;;22.50;83.20;;;;;;6244962;23;20366;-73
2022/12/31 13:08:20;;;;;;;;;;;22.50;83.40;;;;;;6246216;22;19904;-73
2022/12/31 13:10:49;;;;;;;;;;;22.50;83.60;;;;;;6246186;22;19923;-73
2022/12/31 13:13:15;;;;;;;;;;;22.50;83.70;;;;;;6246633;22;20353;-73
2022/12/31 13:15:46;;;;;;;;;;;22.40;83.70;;;;;;6246162;22;19908;-73
2022/12/31 13:18:12;;;;;;;;;;;22.40;83.90;;;;;;6244587;23;19907;-73
2022/12/31 13:20:39;;;;;;;;;;;22.40;83.80;;;;;;6246698;22;19910;-73
2022/12/31 13:23:15;;;;;;;;;;;22.40;83.90;;;;;;6245602;22;19908;-73
2022/12/31 13:25:44;;;;;;;;;;;22.40;83.80;;;;;;6246418;22;19978;-73
2022/12/31 13:28:11;;;;;;;;;;;22.50;83.60;;;;;;6246027;22;20276;-73
2022/12/31 13:30:42;;;;;;;;;;;22.50;83.50;;;;;;6244452;23;19950;-73
2022/12/31 13:33:16;;;;;;;;;;;22.50;83.50;;;;;;6246392;22;20223;-73
2022/12/31 13:35:48;;;;;;;;;;;22.50;83.40;;;;;;6244481;23;19904;-73
2022/12/31 13:38:21;;;;;;;;;;;22.50;83.50;;;;;;6245328;22;20310;-73
2022/12/31 13:40:49;;;;;;;;;;;22.50;83.40;;;;;;6245986;22;19907;-73
2022/12/31 13:43:21;;;;;;;;;;;22.50;83.40;;;;;;6244494;23;19919;-73
2022/12/31 13:45:51;;;;;;;;;;;22.50;83.40;;;;;;6244536;23;19908;-72
2022/12/31 13:48:18;;;;;;;;;;;22.50;83.50;;;;;;6244418;23;19931;-73
2022/12/31 13:50:52;;;;;;;;;;;22.50;83.40;;;;;;6245434;22;20316;-73
2022/12/31 13:53:36;;;;;;;;;;;22.50;83.40;;;;;;6244274;23;19904;-73
2022/12/31 13:56:04;;;;;;;;;;;22.50;83.60;;;;;;6246108;22;19918;-73
2022/12/31 13:58:30;;;;;;;;;;;22.50;83.80;;;;;;6245585;22;19907;-73
2022/12/31 14:01:00;;;;;;;;;;;22.50;83.70;;;;;;6245839;22;19958;-73
2022/12/31 14:03:30;;;;;;;;;;;22.50;83.70;;;;;;6246001;22;19910;-73
2022/12/31 14:06:05;;;;;;;;;;;22.50;83.70;;;;;;6245813;22;19904;-73
2022/12/31 14:08:32;;;;;;;;;;;22.50;83.80;;;;;;6245616;22;19904;-73
2022/12/31 14:11:17;;;;;;;;;;;22.50;83.80;;;;;;6245783;22;19916;-73
2022/12/31 14:13:52;;;;;;;;;;;22.50;83.80;;;;;;6245664;22;19987;-73
2022/12/31 14:16:22;;;;;;;;;;;22.50;83.80;;;;;;6245647;22;19904;-72
2022/12/31 14:18:56;;;;;;;;;;;22.50;83.80;;;;;;6244098;23;19979;-73
2022/12/31 14:21:24;;;;;;;;;;;22.50;83.90;;;;;;6244093;22;19904;-73
2022/12/31 14:24:09;;;;;;;;;;;22.50;84.20;;;;;;6244125;23;20345;-73
2022/12/31 14:26:40;;;;;;;;;;;22.50;84.10;;;;;;6245529;23;19931;-73
2022/12/31 14:29:10;;;;;;;;;;;22.50;84.10;;;;;;6243930;23;19918;-73
2022/12/31 14:31:52;;;;;;;;;;;22.40;84.20;;;;;;6245366;22;19904;-72
2022/12/31 14:34:31;;;;;;;;;;;22.40;84.40;;;;;;6243781;23;19938;-73
2022/12/31 14:37:07;;;;;;;;;;;22.40;84.30;;;;;;6245990;22;20222;-73
2022/12/31 14:39:34;;;;;;;;;;;22.50;84.30;;;;;;6245373;22;19919;-73
2022/12/31 14:42:29;;;;;;;;;;;22.50;84.30;;;;;;6245587;22;19904;-73
2022/12/31 14:45:14;;;;;;;;;;;22.50;84.30;;;;;;6219332;23;20284;-73
2022/12/31 14:47:47;;;;;;;;;;;22.50;84.10;;;;;;6245194;23;20231;-73
2022/12/31 14:50:15;;;;;;;;;;;22.50;84.20;;;;;;6245241;22;19911;-73
2022/12/31 14:52:48;;;;;;;;;;;22.40;84.20;;;;;;6243843;22;19939;-73